Please be sure to check the latest weather conditions by clicking the link and viewing our local weather information!

Check Weather

Welcome to Lakeway Airpark (3R9)

FromTheAir

We’re a community airpark nestled within the town of Lakeway, Texas (17 miles northwest of downtown Austin).

Lakeway Airpark, Inc. was formed by Lakeway residents and interested parties to own and manage Lakeway Airpark (3R9).

The Airpark is a privately owned not for profit public use airport for residents and guests of Lakeway. No public funds are used and the airport is supported by fees and fuel sales at the airport.

Lakeway Airpark is an unmanned facility open for use from Sunrise to Sunset seven days a week. Takeoffs and landings are not permitted at night, between Sunset and Sunrise, by City Ordinance.

Quick Weather Info

Available data for KAUS from the past 2 hours
AUSTIN, TX
Metar
KAUS 272153Z 13021G28KT 10SM BKN050CB BKN070 BKN200 29/21 A2993 RMK AO2 PK WND 14028/2149 LTG DSNT SE AND S SLP125 CB SE MOV W T02940211

21:53 UTC

Wind: 130° 21kt

Visibility: 10 SM

Sky: BKN 5000 ft

Temp: 29 deg C / 84.2 deg F

Dewpoint: 21 deg C / 69.8 deg F

Pressure: 29.93 inHg

TAF
KAUS 271738Z 2718/2824 07005KT P6SM VCSH SCT020 BKN200 FM280000 11005KT P6SM OVC035 FM281000 11002KT P6SM OVC018